sensor_id;sensor_type;location;lat;lon;timestamp;P1;durP1;ratioP1;P2;durP2;ratioP2
9771;SDS011;4925;52.588;13.370;2022-12-20T00:01:29;17.87;;;10.77;;
9771;SDS011;4925;52.588;13.370;2022-12-20T00:03:57;22.90;;;12.97;;
9771;SDS011;4925;52.588;13.370;2022-12-20T00:06:26;19.53;;;12.93;;
9771;SDS011;4925;52.588;13.370;2022-12-20T00:08:56;17.63;;;10.77;;
9771;SDS011;4925;52.588;13.370;2022-12-20T00:11:23;17.50;;;10.17;;
9771;SDS011;4925;52.588;13.370;2022-12-20T00:13:49;19.53;;;10.63;;
9771;SDS011;4925;52.588;13.370;2022-12-20T00:16:16;16.80;;;10.80;;
9771;SDS011;4925;52.588;13.370;2022-12-20T00:18:43;17.27;;;10.97;;
9771;SDS011;4925;52.588;13.370;2022-12-20T00:21:10;17.73;;;11.10;;
9771;SDS011;4925;52.588;13.370;2022-12-20T00:23:37;17.47;;;10.77;;
9771;SDS011;4925;52.588;13.370;2022-12-20T00:26:11;16.83;;;10.37;;
9771;SDS011;4925;52.588;13.370;2022-12-20T00:28:40;16.67;;;10.07;;
9771;SDS011;4925;52.588;13.370;2022-12-20T00:31:06;24.47;;;11.43;;
9771;SDS011;4925;52.588;13.370;2022-12-20T00:33:34;16.93;;;10.53;;
9771;SDS011;4925;52.588;13.370;2022-12-20T00:36:01;18.57;;;10.73;;
9771;SDS011;4925;52.588;13.370;2022-12-20T00:38:27;17.50;;;11.10;;
9771;SDS011;4925;52.588;13.370;2022-12-20T00:41:02;17.63;;;10.97;;
9771;SDS011;4925;52.588;13.370;2022-12-20T00:43:31;15.57;;;9.97;;
9771;SDS011;4925;52.588;13.370;2022-12-20T00:45:58;16.67;;;10.20;;
9771;SDS011;4925;52.588;13.370;2022-12-20T00:48:24;17.50;;;10.90;;
9771;SDS011;4925;52.588;13.370;2022-12-20T00:50:50;18.30;;;10.80;;
9771;SDS011;4925;52.588;13.370;2022-12-20T00:53:16;15.07;;;10.13;;
9771;SDS011;4925;52.588;13.370;2022-12-20T00:55:42;14.50;;;9.73;;
9771;SDS011;4925;52.588;13.370;2022-12-20T00:58:09;15.53;;;10.03;;
9771;SDS011;4925;52.588;13.370;2022-12-20T01:00:35;13.93;;;9.33;;
9771;SDS011;4925;52.588;13.370;2022-12-20T01:03:02;16.50;;;10.77;;
9771;SDS011;4925;52.588;13.370;2022-12-20T01:05:28;18.43;;;12.10;;
9771;SDS011;4925;52.588;13.370;2022-12-20T01:07:53;18.83;;;10.37;;
9771;SDS011;4925;52.588;13.370;2022-12-20T01:10:19;22.43;;;10.20;;
9771;SDS011;4925;52.588;13.370;2022-12-20T01:12:45;19.53;;;12.17;;
9771;SDS011;4925;52.588;13.370;2022-12-20T01:15:11;18.60;;;10.50;;
9771;SDS011;4925;52.588;13.370;2022-12-20T01:17:36;14.97;;;9.67;;
9771;SDS011;4925;52.588;13.370;2022-12-20T01:20:03;18.43;;;10.97;;
9771;SDS011;4925;52.588;13.370;2022-12-20T01:22:29;18.83;;;10.80;;
9771;SDS011;4925;52.588;13.370;2022-12-20T01:24:55;13.50;;;9.40;;
9771;SDS011;4925;52.588;13.370;2022-12-20T01:27:21;17.73;;;9.93;;
9771;SDS011;4925;52.588;13.370;2022-12-20T01:29:46;14.23;;;9.27;;
9771;SDS011;4925;52.588;13.370;2022-12-20T01:32:12;18.43;;;11.00;;
9771;SDS011;4925;52.588;13.370;2022-12-20T01:34:38;14.03;;;9.70;;
9771;SDS011;4925;52.588;13.370;2022-12-20T01:37:03;16.70;;;11.23;;
9771;SDS011;4925;52.588;13.370;2022-12-20T01:39:29;17.53;;;10.40;;
9771;SDS011;4925;52.588;13.370;2022-12-20T01:41:54;17.53;;;9.67;;
9771;SDS011;4925;52.588;13.370;2022-12-20T01:46:46;15.53;;;10.07;;
9771;SDS011;4925;52.588;13.370;2022-12-20T01:54:42;15.67;;;9.40;;
9771;SDS011;4925;52.588;13.370;2022-12-20T01:57:44;16.30;;;9.17;;
9771;SDS011;4925;52.588;13.370;2022-12-20T02:00:13;16.17;;;9.40;;
9771;SDS011;4925;52.588;13.370;2022-12-20T02:02:40;14.77;;;9.70;;
9771;SDS011;4925;52.588;13.370;2022-12-20T02:05:07;14.87;;;9.50;;
9771;SDS011;4925;52.588;13.370;2022-12-20T02:07:34;15.03;;;10.07;;
9771;SDS011;4925;52.588;13.370;2022-12-20T02:10:02;14.80;;;9.87;;
9771;SDS011;4925;52.588;13.370;2022-12-20T02:12:37;20.07;;;8.83;;
9771;SDS011;4925;52.588;13.370;2022-12-20T02:15:20;11.67;;;8.30;;
9771;SDS011;4925;52.588;13.370;2022-12-20T02:20:49;17.10;;;10.03;;
9771;SDS011;4925;52.588;13.370;2022-12-20T02:23:29;16.20;;;9.70;;
9771;SDS011;4925;52.588;13.370;2022-12-20T02:26:19;13.60;;;9.10;;
9771;SDS011;4925;52.588;13.370;2022-12-20T02:32:01;14.27;;;9.83;;
9771;SDS011;4925;52.588;13.370;2022-12-20T02:34:38;22.00;;;10.70;;
9771;SDS011;4925;52.588;13.370;2022-12-20T02:37:05;16.97;;;9.30;;
9771;SDS011;4925;52.588;13.370;2022-12-20T02:39:31;14.10;;;8.67;;
9771;SDS011;4925;52.588;13.370;2022-12-20T02:42:09;16.70;;;9.30;;
9771;SDS011;4925;52.588;13.370;2022-12-20T02:44:52;14.03;;;8.73;;
9771;SDS011;4925;52.588;13.370;2022-12-20T02:50:27;15.47;;;8.93;;
9771;SDS011;4925;52.588;13.370;2022-12-20T02:52:56;16.77;;;9.03;;
9771;SDS011;4925;52.588;13.370;2022-12-20T02:55:24;13.37;;;9.00;;
9771;SDS011;4925;52.588;13.370;2022-12-20T02:58:21;15.43;;;9.13;;
9771;SDS011;4925;52.588;13.370;2022-12-20T03:00:58;16.73;;;9.17;;
9771;SDS011;4925;52.588;13.370;2022-12-20T03:03:29;16.50;;;9.37;;
9771;SDS011;4925;52.588;13.370;2022-12-20T03:05:56;14.83;;;9.43;;
9771;SDS011;4925;52.588;13.370;2022-12-20T03:08:22;16.10;;;8.67;;
9771;SDS011;4925;52.588;13.370;2022-12-20T03:10:50;13.97;;;9.83;;
9771;SDS011;4925;52.588;13.370;2022-12-20T03:13:17;14.93;;;9.83;;
9771;SDS011;4925;52.588;13.370;2022-12-20T03:15:43;13.00;;;8.83;;
9771;SDS011;4925;52.588;13.370;2022-12-20T03:18:09;14.97;;;8.43;;
9771;SDS011;4925;52.588;13.370;2022-12-20T03:20:35;18.23;;;9.13;;
9771;SDS011;4925;52.588;13.370;2022-12-20T03:23:01;16.83;;;9.80;;
9771;SDS011;4925;52.588;13.370;2022-12-20T03:25:27;17.33;;;9.47;;
9771;SDS011;4925;52.588;13.370;2022-12-20T03:27:52;15.43;;;9.03;;
9771;SDS011;4925;52.588;13.370;2022-12-20T03:30:18;15.53;;;9.27;;
9771;SDS011;4925;52.588;13.370;2022-12-20T03:32:44;13.83;;;9.00;;
9771;SDS011;4925;52.588;13.370;2022-12-20T03:35:10;14.87;;;8.60;;
9771;SDS011;4925;52.588;13.370;2022-12-20T03:37:36;11.47;;;8.30;;
9771;SDS011;4925;52.588;13.370;2022-12-20T03:40:02;12.50;;;8.53;;
9771;SDS011;4925;52.588;13.370;2022-12-20T03:42:27;16.70;;;8.80;;
9771;SDS011;4925;52.588;13.370;2022-12-20T03:44:53;13.50;;;8.57;;
9771;SDS011;4925;52.588;13.370;2022-12-20T03:47:19;14.80;;;9.50;;
9771;SDS011;4925;52.588;13.370;2022-12-20T03:49:44;12.73;;;8.67;;
9771;SDS011;4925;52.588;13.370;2022-12-20T03:52:11;12.97;;;8.80;;
9771;SDS011;4925;52.588;13.370;2022-12-20T03:54:37;16.17;;;8.50;;
9771;SDS011;4925;52.588;13.370;2022-12-20T03:57:03;13.70;;;7.97;;
9771;SDS011;4925;52.588;13.370;2022-12-20T03:59:29;11.93;;;8.43;;
9771;SDS011;4925;52.588;13.370;2022-12-20T04:01:54;13.10;;;8.57;;
9771;SDS011;4925;52.588;13.370;2022-12-20T04:04:20;13.27;;;7.87;;
9771;SDS011;4925;52.588;13.370;2022-12-20T04:06:46;14.53;;;8.67;;
9771;SDS011;4925;52.588;13.370;2022-12-20T04:09:12;14.27;;;8.87;;
9771;SDS011;4925;52.588;13.370;2022-12-20T04:11:38;15.20;;;8.97;;
9771;SDS011;4925;52.588;13.370;2022-12-20T04:14:04;12.80;;;8.17;;
9771;SDS011;4925;52.588;13.370;2022-12-20T04:16:30;11.47;;;8.13;;
9771;SDS011;4925;52.588;13.370;2022-12-20T04:18:56;13.67;;;8.73;;
9771;SDS011;4925;52.588;13.370;2022-12-20T04:21:26;11.83;;;8.40;;
9771;SDS011;4925;52.588;13.370;2022-12-20T04:23:54;11.93;;;8.40;;
9771;SDS011;4925;52.588;13.370;2022-12-20T04:26:26;13.37;;;8.83;;
9771;SDS011;4925;52.588;13.370;2022-12-20T04:28:53;11.60;;;7.77;;
9771;SDS011;4925;52.588;13.370;2022-12-20T04:31:18;14.40;;;9.20;;
9771;SDS011;4925;52.588;13.370;2022-12-20T04:33:44;12.73;;;8.20;;
9771;SDS011;4925;52.588;13.370;2022-12-20T04:36:10;13.20;;;8.47;;
9771;SDS011;4925;52.588;13.370;2022-12-20T04:38:36;12.17;;;8.93;;
9771;SDS011;4925;52.588;13.370;2022-12-20T04:41:02;12.40;;;8.03;;
9771;SDS011;4925;52.588;13.370;2022-12-20T04:43:27;12.33;;;7.97;;
9771;SDS011;4925;52.588;13.370;2022-12-20T04:45:54;12.60;;;8.50;;
9771;SDS011;4925;52.588;13.370;2022-12-20T04:48:20;13.70;;;8.70;;
9771;SDS011;4925;52.588;13.370;2022-12-20T04:50:49;10.90;;;7.60;;
9771;SDS011;4925;52.588;13.370;2022-12-20T04:53:15;11.77;;;7.73;;
9771;SDS011;4925;52.588;13.370;2022-12-20T04:56:00;13.90;;;8.83;;
9771;SDS011;4925;52.588;13.370;2022-12-20T04:58:26;12.30;;;8.23;;
9771;SDS011;4925;52.588;13.370;2022-12-20T05:00:52;14.13;;;8.67;;
9771;SDS011;4925;52.588;13.370;2022-12-20T05:03:18;14.20;;;9.30;;
9771;SDS011;4925;52.588;13.370;2022-12-20T05:05:44;15.93;;;9.80;;
9771;SDS011;4925;52.588;13.370;2022-12-20T05:08:10;12.77;;;8.30;;
9771;SDS011;4925;52.588;13.370;2022-12-20T05:10:36;16.60;;;9.17;;
9771;SDS011;4925;52.588;13.370;2022-12-20T05:13:02;15.07;;;9.73;;
9771;SDS011;4925;52.588;13.370;2022-12-20T05:15:27;15.40;;;9.50;;
9771;SDS011;4925;52.588;13.370;2022-12-20T05:17:53;12.97;;;8.60;;
9771;SDS011;4925;52.588;13.370;2022-12-20T05:20:26;13.07;;;8.77;;
9771;SDS011;4925;52.588;13.370;2022-12-20T05:22:53;12.93;;;7.97;;
9771;SDS011;4925;52.588;13.370;2022-12-20T05:25:48;12.53;;;8.67;;
9771;SDS011;4925;52.588;13.370;2022-12-20T05:28:34;13.60;;;8.87;;
9771;SDS011;4925;52.588;13.370;2022-12-20T05:31:01;16.37;;;9.43;;
9771;SDS011;4925;52.588;13.370;2022-12-20T05:33:26;13.53;;;8.33;;
9771;SDS011;4925;52.588;13.370;2022-12-20T05:35:53;13.77;;;8.97;;
9771;SDS011;4925;52.588;13.370;2022-12-20T05:38:19;15.40;;;8.37;;
9771;SDS011;4925;52.588;13.370;2022-12-20T05:40:46;11.10;;;8.27;;
9771;SDS011;4925;52.588;13.370;2022-12-20T05:43:13;13.00;;;8.67;;
9771;SDS011;4925;52.588;13.370;2022-12-20T05:45:43;16.37;;;8.60;;
9771;SDS011;4925;52.588;13.370;2022-12-20T05:48:14;17.13;;;9.37;;
9771;SDS011;4925;52.588;13.370;2022-12-20T05:50:40;13.10;;;8.60;;
9771;SDS011;4925;52.588;13.370;2022-12-20T05:53:08;13.30;;;8.43;;
9771;SDS011;4925;52.588;13.370;2022-12-20T05:55:35;13.07;;;9.27;;
9771;SDS011;4925;52.588;13.370;2022-12-20T05:58:01;15.30;;;8.63;;
9771;SDS011;4925;52.588;13.370;2022-12-20T06:00:27;16.70;;;9.37;;
9771;SDS011;4925;52.588;13.370;2022-12-20T06:02:52;15.23;;;9.00;;
9771;SDS011;4925;52.588;13.370;2022-12-20T06:05:18;14.27;;;8.50;;
9771;SDS011;4925;52.588;13.370;2022-12-20T06:07:44;14.63;;;9.33;;
9771;SDS011;4925;52.588;13.370;2022-12-20T06:10:09;14.07;;;8.57;;
9771;SDS011;4925;52.588;13.370;2022-12-20T06:12:35;16.13;;;9.43;;
9771;SDS011;4925;52.588;13.370;2022-12-20T06:15:01;12.20;;;8.60;;
9771;SDS011;4925;52.588;13.370;2022-12-20T06:17:27;19.10;;;9.47;;
9771;SDS011;4925;52.588;13.370;2022-12-20T06:19:53;17.27;;;9.43;;
9771;SDS011;4925;52.588;13.370;2022-12-20T06:22:18;16.70;;;10.13;;
9771;SDS011;4925;52.588;13.370;2022-12-20T06:24:44;14.43;;;9.03;;
9771;SDS011;4925;52.588;13.370;2022-12-20T06:27:10;15.93;;;8.60;;
9771;SDS011;4925;52.588;13.370;2022-12-20T06:29:35;11.73;;;8.70;;
9771;SDS011;4925;52.588;13.370;2022-12-20T06:32:01;15.57;;;9.83;;
9771;SDS011;4925;52.588;13.370;2022-12-20T06:34:29;15.70;;;9.87;;
9771;SDS011;4925;52.588;13.370;2022-12-20T06:36:58;15.03;;;8.53;;
9771;SDS011;4925;52.588;13.370;2022-12-20T06:39:23;15.53;;;9.20;;
9771;SDS011;4925;52.588;13.370;2022-12-20T06:41:49;12.93;;;9.50;;
9771;SDS011;4925;52.588;13.370;2022-12-20T06:44:15;17.33;;;10.07;;
9771;SDS011;4925;52.588;13.370;2022-12-20T06:46:40;15.20;;;9.87;;
9771;SDS011;4925;52.588;13.370;2022-12-20T06:49:06;15.30;;;9.97;;
9771;SDS011;4925;52.588;13.370;2022-12-20T06:51:32;17.40;;;10.17;;
9771;SDS011;4925;52.588;13.370;2022-12-20T06:53:58;21.00;;;10.70;;
9771;SDS011;4925;52.588;13.370;2022-12-20T06:56:23;16.63;;;9.23;;
9771;SDS011;4925;52.588;13.370;2022-12-20T06:58:49;18.33;;;9.93;;
9771;SDS011;4925;52.588;13.370;2022-12-20T07:01:15;16.53;;;9.03;;
9771;SDS011;4925;52.588;13.370;2022-12-20T07:03:40;13.87;;;10.30;;
9771;SDS011;4925;52.588;13.370;2022-12-20T07:06:06;14.33;;;9.03;;
9771;SDS011;4925;52.588;13.370;2022-12-20T07:08:32;15.37;;;9.13;;
9771;SDS011;4925;52.588;13.370;2022-12-20T07:11:04;22.03;;;9.97;;
9771;SDS011;4925;52.588;13.370;2022-12-20T07:13:31;17.33;;;10.87;;
9771;SDS011;4925;52.588;13.370;2022-12-20T07:15:58;16.40;;;11.13;;
9771;SDS011;4925;52.588;13.370;2022-12-20T07:18:27;13.53;;;10.10;;
9771;SDS011;4925;52.588;13.370;2022-12-20T07:20:53;18.80;;;10.83;;
9771;SDS011;4925;52.588;13.370;2022-12-20T07:23:23;18.10;;;10.57;;
9771;SDS011;4925;52.588;13.370;2022-12-20T07:25:55;16.80;;;10.83;;
9771;SDS011;4925;52.588;13.370;2022-12-20T07:28:23;15.70;;;10.53;;
9771;SDS011;4925;52.588;13.370;2022-12-20T07:30:49;17.73;;;10.50;;
9771;SDS011;4925;52.588;13.370;2022-12-20T07:33:15;18.37;;;10.73;;
9771;SDS011;4925;52.588;13.370;2022-12-20T07:35:41;15.20;;;9.93;;
9771;SDS011;4925;52.588;13.370;2022-12-20T07:38:08;15.00;;;10.60;;
9771;SDS011;4925;52.588;13.370;2022-12-20T07:40:33;17.53;;;10.30;;
9771;SDS011;4925;52.588;13.370;2022-12-20T07:42:59;19.60;;;11.07;;
9771;SDS011;4925;52.588;13.370;2022-12-20T07:45:25;15.93;;;10.73;;
9771;SDS011;4925;52.588;13.370;2022-12-20T07:47:50;15.40;;;10.83;;
9771;SDS011;4925;52.588;13.370;2022-12-20T07:50:17;16.33;;;11.03;;
9771;SDS011;4925;52.588;13.370;2022-12-20T07:52:42;17.37;;;10.20;;
9771;SDS011;4925;52.588;13.370;2022-12-20T07:55:13;14.80;;;9.07;;
9771;SDS011;4925;52.588;13.370;2022-12-20T07:57:41;20.00;;;11.40;;
9771;SDS011;4925;52.588;13.370;2022-12-20T08:00:11;15.53;;;10.57;;
9771;SDS011;4925;52.588;13.370;2022-12-20T08:02:48;17.40;;;11.13;;
9771;SDS011;4925;52.588;13.370;2022-12-20T08:05:22;16.63;;;11.10;;
9771;SDS011;4925;52.588;13.370;2022-12-20T08:07:48;15.87;;;11.33;;
9771;SDS011;4925;52.588;13.370;2022-12-20T08:10:14;17.17;;;10.53;;
9771;SDS011;4925;52.588;13.370;2022-12-20T08:12:43;18.57;;;11.43;;
9771;SDS011;4925;52.588;13.370;2022-12-20T08:15:11;24.70;;;11.00;;
9771;SDS011;4925;52.588;13.370;2022-12-20T08:17:37;17.40;;;10.90;;
9771;SDS011;4925;52.588;13.370;2022-12-20T08:20:03;18.03;;;11.07;;
9771;SDS011;4925;52.588;13.370;2022-12-20T08:22:30;18.10;;;10.57;;
9771;SDS011;4925;52.588;13.370;2022-12-20T08:24:56;14.63;;;10.57;;
9771;SDS011;4925;52.588;13.370;2022-12-20T08:27:22;18.40;;;11.53;;
9771;SDS011;4925;52.588;13.370;2022-12-20T08:29:48;17.40;;;11.80;;
9771;SDS011;4925;52.588;13.370;2022-12-20T08:32:14;19.13;;;11.83;;
9771;SDS011;4925;52.588;13.370;2022-12-20T08:34:40;20.07;;;11.60;;
9771;SDS011;4925;52.588;13.370;2022-12-20T08:37:06;17.03;;;11.07;;
9771;SDS011;4925;52.588;13.370;2022-12-20T08:39:32;18.30;;;11.03;;
9771;SDS011;4925;52.588;13.370;2022-12-20T08:41:57;17.63;;;11.23;;
9771;SDS011;4925;52.588;13.370;2022-12-20T08:44:23;16.57;;;12.10;;
9771;SDS011;4925;52.588;13.370;2022-12-20T08:46:49;16.10;;;11.20;;
9771;SDS011;4925;52.588;13.370;2022-12-20T08:49:15;16.60;;;11.07;;
9771;SDS011;4925;52.588;13.370;2022-12-20T08:51:41;20.07;;;10.97;;
9771;SDS011;4925;52.588;13.370;2022-12-20T08:54:07;18.07;;;11.47;;
9771;SDS011;4925;52.588;13.370;2022-12-20T08:56:33;16.90;;;11.13;;
9771;SDS011;4925;52.588;13.370;2022-12-20T08:58:58;20.17;;;12.10;;
9771;SDS011;4925;52.588;13.370;2022-12-20T09:01:24;15.83;;;10.80;;
9771;SDS011;4925;52.588;13.370;2022-12-20T09:03:51;16.63;;;11.40;;
9771;SDS011;4925;52.588;13.370;2022-12-20T09:06:20;18.27;;;11.23;;
9771;SDS011;4925;52.588;13.370;2022-12-20T09:08:47;19.37;;;11.27;;
9771;SDS011;4925;52.588;13.370;2022-12-20T09:11:14;17.27;;;10.43;;
9771;SDS011;4925;52.588;13.370;2022-12-20T09:13:45;19.27;;;10.63;;
9771;SDS011;4925;52.588;13.370;2022-12-20T09:16:14;17.33;;;11.63;;
9771;SDS011;4925;52.588;13.370;2022-12-20T09:18:41;16.47;;;10.73;;
9771;SDS011;4925;52.588;13.370;2022-12-20T09:21:08;20.80;;;13.93;;
9771;SDS011;4925;52.588;13.370;2022-12-20T09:23:34;19.80;;;12.47;;
9771;SDS011;4925;52.588;13.370;2022-12-20T09:26:02;15.47;;;10.37;;
9771;SDS011;4925;52.588;13.370;2022-12-20T09:28:30;15.33;;;10.37;;
9771;SDS011;4925;52.588;13.370;2022-12-20T09:30:57;19.17;;;10.80;;
9771;SDS011;4925;52.588;13.370;2022-12-20T09:33:27;16.43;;;10.33;;
9771;SDS011;4925;52.588;13.370;2022-12-20T09:35:55;16.83;;;10.80;;
9771;SDS011;4925;52.588;13.370;2022-12-20T09:38:21;16.10;;;9.83;;
9771;SDS011;4925;52.588;13.370;2022-12-20T09:40:48;15.03;;;10.27;;
9771;SDS011;4925;52.588;13.370;2022-12-20T09:43:16;15.63;;;9.90;;
9771;SDS011;4925;52.588;13.370;2022-12-20T09:45:42;17.47;;;11.33;;
9771;SDS011;4925;52.588;13.370;2022-12-20T09:48:18;19.03;;;10.87;;
9771;SDS011;4925;52.588;13.370;2022-12-20T09:53:36;15.10;;;10.17;;
9771;SDS011;4925;52.588;13.370;2022-12-20T09:56:36;20.33;;;13.50;;
9771;SDS011;4925;52.588;13.370;2022-12-20T09:59:14;19.87;;;13.03;;
9771;SDS011;4925;52.588;13.370;2022-12-20T10:01:43;14.97;;;10.03;;
9771;SDS011;4925;52.588;13.370;2022-12-20T10:04:22;16.00;;;10.73;;
9771;SDS011;4925;52.588;13.370;2022-12-20T10:10:13;13.60;;;9.83;;
9771;SDS011;4925;52.588;13.370;2022-12-20T10:12:48;16.10;;;10.60;;
9771;SDS011;4925;52.588;13.370;2022-12-20T10:15:25;16.87;;;10.50;;
9771;SDS011;4925;52.588;13.370;2022-12-20T10:23:59;16.20;;;10.40;;
9771;SDS011;4925;52.588;13.370;2022-12-20T10:26:27;17.33;;;10.57;;
9771;SDS011;4925;52.588;13.370;2022-12-20T10:28:54;14.40;;;9.47;;
9771;SDS011;4925;52.588;13.370;2022-12-20T10:31:20;13.60;;;9.37;;
9771;SDS011;4925;52.588;13.370;2022-12-20T10:33:46;15.17;;;10.10;;
9771;SDS011;4925;52.588;13.370;2022-12-20T10:38:47;13.83;;;8.50;;
9771;SDS011;4925;52.588;13.370;2022-12-20T10:41:18;14.73;;;9.53;;
9771;SDS011;4925;52.588;13.370;2022-12-20T10:43:46;13.87;;;9.17;;
9771;SDS011;4925;52.588;13.370;2022-12-20T10:46:17;15.87;;;9.67;;
9771;SDS011;4925;52.588;13.370;2022-12-20T10:48:44;16.30;;;10.53;;
9771;SDS011;4925;52.588;13.370;2022-12-20T10:51:16;12.20;;;8.73;;
9771;SDS011;4925;52.588;13.370;2022-12-20T10:54:01;13.37;;;10.40;;
9771;SDS011;4925;52.588;13.370;2022-12-20T10:56:28;15.43;;;10.87;;
9771;SDS011;4925;52.588;13.370;2022-12-20T10:59:00;14.03;;;10.60;;
9771;SDS011;4925;52.588;13.370;2022-12-20T11:01:31;13.17;;;9.43;;
9771;SDS011;4925;52.588;13.370;2022-12-20T11:04:00;15.50;;;10.70;;
9771;SDS011;4925;52.588;13.370;2022-12-20T11:12:31;11.93;;;9.40;;
9771;SDS011;4925;52.588;13.370;2022-12-20T11:14:35;14.07;;;9.40;;
9771;SDS011;4925;52.588;13.370;2022-12-20T11:17:03;15.90;;;9.57;;
9771;SDS011;4925;52.588;13.370;2022-12-20T11:19:53;13.57;;;10.07;;
9771;SDS011;4925;52.588;13.370;2022-12-20T11:25:30;17.23;;;11.17;;
9771;SDS011;4925;52.588;13.370;2022-12-20T11:28:13;19.00;;;12.20;;
9771;SDS011;4925;52.588;13.370;2022-12-20T11:31:08;16.27;;;11.23;;
9771;SDS011;4925;52.588;13.370;2022-12-20T11:53:10;12.23;;;8.80;;
9771;SDS011;4925;52.588;13.370;2022-12-20T11:55:53;12.43;;;8.93;;
9771;SDS011;4925;52.588;13.370;2022-12-20T11:58:32;12.37;;;8.93;;
9771;SDS011;4925;52.588;13.370;2022-12-20T12:01:27;15.93;;;9.07;;
9771;SDS011;4925;52.588;13.370;2022-12-20T12:06:47;11.00;;;8.27;;
9771;SDS011;4925;52.588;13.370;2022-12-20T12:18:17;12.10;;;8.50;;
9771;SDS011;4925;52.588;13.370;2022-12-20T12:26:27;12.10;;;7.83;;
9771;SDS011;4925;52.588;13.370;2022-12-20T12:29:08;10.77;;;7.83;;
9771;SDS011;4925;52.588;13.370;2022-12-20T12:34:12;12.20;;;8.07;;
9771;SDS011;4925;52.588;13.370;2022-12-20T12:47:22;10.20;;;7.97;;
9771;SDS011;4925;52.588;13.370;2022-12-20T12:50:03;10.70;;;8.10;;
9771;SDS011;4925;52.588;13.370;2022-12-20T12:52:40;11.30;;;8.40;;
9771;SDS011;4925;52.588;13.370;2022-12-20T13:00:52;11.43;;;8.53;;
9771;SDS011;4925;52.588;13.370;2022-12-20T13:03:34;11.73;;;7.63;;
9771;SDS011;4925;52.588;13.370;2022-12-20T13:11:29;11.47;;;8.23;;
9771;SDS011;4925;52.588;13.370;2022-12-20T13:16:49;11.67;;;7.83;;
9771;SDS011;4925;52.588;13.370;2022-12-20T13:21:54;14.00;;;8.60;;
9771;SDS011;4925;52.588;13.370;2022-12-20T13:27:01;12.63;;;8.47;;
9771;SDS011;4925;52.588;13.370;2022-12-20T13:29:52;17.50;;;12.00;;
9771;SDS011;4925;52.588;13.370;2022-12-20T13:38:00;14.37;;;8.23;;
9771;SDS011;4925;52.588;13.370;2022-12-20T13:40:47;14.40;;;9.77;;
9771;SDS011;4925;52.588;13.370;2022-12-20T13:48:21;12.53;;;9.17;;
9771;SDS011;4925;52.588;13.370;2022-12-20T13:51:04;11.77;;;8.50;;
9771;SDS011;4925;52.588;13.370;2022-12-20T13:53:33;13.33;;;9.67;;
9771;SDS011;4925;52.588;13.370;2022-12-20T13:59:05;12.70;;;8.73;;
9771;SDS011;4925;52.588;13.370;2022-12-20T14:01:38;15.10;;;10.17;;
9771;SDS011;4925;52.588;13.370;2022-12-20T14:04:16;16.10;;;10.03;;
9771;SDS011;4925;52.588;13.370;2022-12-20T14:06:43;13.23;;;8.47;;
9771;SDS011;4925;52.588;13.370;2022-12-20T14:09:31;12.43;;;7.97;;
9771;SDS011;4925;52.588;13.370;2022-12-20T14:12:05;18.57;;;9.67;;
9771;SDS011;4925;52.588;13.370;2022-12-20T14:14:50;11.57;;;8.43;;
9771;SDS011;4925;52.588;13.370;2022-12-20T14:20:00;14.23;;;8.97;;
9771;SDS011;4925;52.588;13.370;2022-12-20T14:22:47;13.37;;;8.50;;
9771;SDS011;4925;52.588;13.370;2022-12-20T14:25:33;12.53;;;8.90;;
9771;SDS011;4925;52.588;13.370;2022-12-20T14:28:00;14.20;;;8.73;;
9771;SDS011;4925;52.588;13.370;2022-12-20T14:30:28;11.53;;;8.20;;
9771;SDS011;4925;52.588;13.370;2022-12-20T14:32:57;12.63;;;8.67;;
9771;SDS011;4925;52.588;13.370;2022-12-20T14:35:22;15.93;;;8.77;;
9771;SDS011;4925;52.588;13.370;2022-12-20T14:37:53;13.70;;;9.50;;
9771;SDS011;4925;52.588;13.370;2022-12-20T14:40:21;12.97;;;9.03;;
9771;SDS011;4925;52.588;13.370;2022-12-20T14:42:47;13.23;;;9.40;;
9771;SDS011;4925;52.588;13.370;2022-12-20T14:47:53;14.33;;;8.17;;
9771;SDS011;4925;52.588;13.370;2022-12-20T14:50:25;16.13;;;9.87;;
9771;SDS011;4925;52.588;13.370;2022-12-20T14:52:55;13.20;;;8.93;;
9771;SDS011;4925;52.588;13.370;2022-12-20T14:55:23;13.30;;;9.00;;
9771;SDS011;4925;52.588;13.370;2022-12-20T14:57:56;13.23;;;9.17;;
9771;SDS011;4925;52.588;13.370;2022-12-20T15:00:26;14.07;;;8.97;;
9771;SDS011;4925;52.588;13.370;2022-12-20T15:10:56;13.10;;;9.43;;
9771;SDS011;4925;52.588;13.370;2022-12-20T15:13:44;13.40;;;9.67;;
9771;SDS011;4925;52.588;13.370;2022-12-20T15:16:27;13.70;;;9.50;;
9771;SDS011;4925;52.588;13.370;2022-12-20T15:18:54;15.23;;;9.57;;
9771;SDS011;4925;52.588;13.370;2022-12-20T15:23:54;16.17;;;11.03;;
9771;SDS011;4925;52.588;13.370;2022-12-20T15:26:22;14.90;;;9.40;;
9771;SDS011;4925;52.588;13.370;2022-12-20T15:28:50;16.40;;;10.27;;
9771;SDS011;4925;52.588;13.370;2022-12-20T15:31:17;15.60;;;11.00;;
9771;SDS011;4925;52.588;13.370;2022-12-20T15:33:44;17.50;;;10.53;;
9771;SDS011;4925;52.588;13.370;2022-12-20T15:36:12;18.97;;;11.00;;
9771;SDS011;4925;52.588;13.370;2022-12-20T15:38:48;15.83;;;11.13;;
9771;SDS011;4925;52.588;13.370;2022-12-20T15:41:21;19.23;;;10.83;;
9771;SDS011;4925;52.588;13.370;2022-12-20T15:43:53;17.50;;;11.00;;
9771;SDS011;4925;52.588;13.370;2022-12-20T15:46:21;18.60;;;11.33;;
9771;SDS011;4925;52.588;13.370;2022-12-20T15:48:47;20.53;;;12.93;;
9771;SDS011;4925;52.588;13.370;2022-12-20T15:51:35;20.00;;;13.93;;
9771;SDS011;4925;52.588;13.370;2022-12-20T15:54:11;20.63;;;11.13;;
9771;SDS011;4925;52.588;13.370;2022-12-20T15:56:44;18.60;;;11.37;;
9771;SDS011;4925;52.588;13.370;2022-12-20T15:59:10;18.40;;;11.53;;
9771;SDS011;4925;52.588;13.370;2022-12-20T16:01:36;21.43;;;12.10;;
9771;SDS011;4925;52.588;13.370;2022-12-20T16:04:04;17.17;;;11.10;;
9771;SDS011;4925;52.588;13.370;2022-12-20T16:06:31;18.90;;;11.80;;
9771;SDS011;4925;52.588;13.370;2022-12-20T16:08:57;15.93;;;10.87;;
9771;SDS011;4925;52.588;13.370;2022-12-20T16:11:25;18.07;;;11.37;;
9771;SDS011;4925;52.588;13.370;2022-12-20T16:13:55;19.27;;;10.93;;
9771;SDS011;4925;52.588;13.370;2022-12-20T16:16:22;16.90;;;10.70;;
9771;SDS011;4925;52.588;13.370;2022-12-20T16:18:51;15.60;;;10.97;;
9771;SDS011;4925;52.588;13.370;2022-12-20T16:21:21;19.80;;;11.93;;
9771;SDS011;4925;52.588;13.370;2022-12-20T16:23:51;18.43;;;11.80;;
9771;SDS011;4925;52.588;13.370;2022-12-20T16:26:19;18.67;;;11.83;;
9771;SDS011;4925;52.588;13.370;2022-12-20T16:28:47;19.77;;;12.20;;
9771;SDS011;4925;52.588;13.370;2022-12-20T16:31:20;20.90;;;11.67;;
9771;SDS011;4925;52.588;13.370;2022-12-20T16:33:53;16.57;;;11.33;;
9771;SDS011;4925;52.588;13.370;2022-12-20T16:36:20;20.23;;;12.50;;
9771;SDS011;4925;52.588;13.370;2022-12-20T16:38:47;20.20;;;10.70;;
9771;SDS011;4925;52.588;13.370;2022-12-20T16:41:14;18.73;;;11.53;;
9771;SDS011;4925;52.588;13.370;2022-12-20T16:43:42;20.10;;;11.23;;
9771;SDS011;4925;52.588;13.370;2022-12-20T16:46:11;19.73;;;11.47;;
9771;SDS011;4925;52.588;13.370;2022-12-20T16:48:38;18.93;;;12.00;;
9771;SDS011;4925;52.588;13.370;2022-12-20T16:54:12;17.77;;;10.77;;
9771;SDS011;4925;52.588;13.370;2022-12-20T16:56:38;18.90;;;11.63;;
9771;SDS011;4925;52.588;13.370;2022-12-20T16:59:04;16.17;;;10.43;;
9771;SDS011;4925;52.588;13.370;2022-12-20T17:01:32;19.93;;;11.37;;
9771;SDS011;4925;52.588;13.370;2022-12-20T17:03:59;21.03;;;11.27;;
9771;SDS011;4925;52.588;13.370;2022-12-20T17:06:26;17.73;;;11.67;;
9771;SDS011;4925;52.588;13.370;2022-12-20T17:08:53;18.93;;;11.97;;
9771;SDS011;4925;52.588;13.370;2022-12-20T17:13:50;20.03;;;12.00;;
9771;SDS011;4925;52.588;13.370;2022-12-20T17:16:17;19.73;;;12.20;;
9771;SDS011;4925;52.588;13.370;2022-12-20T17:18:47;18.73;;;12.13;;